Aeroporto :
LOGIN :

Iscrizione | Disclaimer

   EN    FR    IT 

 










Sommario :    VFR   VFR Marginale   IFR   IFR Intensivo   IFR Molto Intensivo
Visibilità : 
Base nubi : 
>= 8 km
>= 3000ft
5 / 8 km
1000 / 3000 ft
1500m / 5 km
500 / 1000 ft
800 / 1500m
200 / 500 ft
< 800m
< 200 ft
Simboli :   Temporali  Nebbia  Neve Forte  Precipitazioni Forti  Vento > 20 kt
SIGMETs :   Varie  Temporali  Ghiacco  Turbolenza  Onda orograficha  Ceneri Vulcaniche






- Altitudine del aeroporto : 309 ft
- Codice IATA : FNI


LFTW - Nîmes Garons

ULTIMO METAR :
  • 141900Z AUTO 32010KT 9999 OVC006 04/04 Q0995 BECMG BKN014

METARs OBSOLETI :
  • 141830Z AUTO 31008KT 270V330 9999 OVC005 05/04 Q0995 BECMG BKN014
  • 141800Z AUTO 28006KT 250V320 9999 BKN005/// BKN041/// BKN054/// ///TCU 05/05 Q0995 BECMG BKN014
  • 141730Z AUTO 33006KT 9999 -RA FEW004/// BKN035/// OVC047/// ///TCU 05/05 Q0995 BECMG BKN014
  • 141700Z AUTO 33006KT 300V360 9999 -RA FEW004/// OVC031/// ///TCU 05/05 Q0995 BECMG BKN014
  • 141630Z AUTO 30008KT 260V330 9999 -RA BKN004/// OVC011/// ///TCU 05/05 Q0995 BECMG BKN014

TAF AMD TAF LFTW
Valido dal 14 a 17 ore il 15 a 15 ore UTC


141734Z 1417/1515 VRB02KT 9999 -RA FEW004 BKN035 OVC047
TEMPO 1417/1419 5000 RA BR OVC003
BECMG 1418/1420 34015KT NSW BKN014
BECMG 1421/1423 VRB03KT



MetMap, La meteo Aeronautica in un colpo d'occhio ! - Copyright ORBIFLY Dicembre 2007 - Disclaimer

ORBIFLY MET'MAP TEAM :

Programmazione e sviluppo : Alexandra Zaïnal
Concezione e sviluppo : Baudouin d'Aumeries
Co-Programmazione e sviluppo : Marc-Olivier Méhu
Supporto tecnico e logistico : Manuel Goepfert
Aiuto per la traduzione : Arnaldo La Scala

Contatto : metmap@orbifly.com




FONTI E CREDITI :

   NOAA